Time;durP1;ratioP1;P1;durP2;ratioP2;P2;SDS_P1;SDS_P2;PMS_P1;PMS_P2;Temp;Humidity;BMP_temperature;BMP_pressure;BME280_temperature;BME280_humidity;BME280_pressure;Samples;Min_cycle;Max_cycle;Signal;HPM_P1;HPM_P2
2024/02/25 00:00:45;;;;;;;12.60;7.10;;;;;;;5.12;93.13;96127.46;108898;1265;22557;-75
2024/02/25 00:03:37;;;;;;;8.30;5.40;;;;;;;5.11;92.86;96134.34;108883;1271;23811;-75
2024/02/25 00:06:08;;;;;;;10.20;6.10;;;;;;;5.09;93.04;96139.54;108862;1271;25472;-75
2024/02/25 00:08:42;;;;;;;10.20;5.80;;;;;;;5.08;93.08;96137.55;108859;1265;22520;-75
2024/02/25 00:11:20;;;;;;;8.00;5.00;;;;;;;5.02;92.53;96137.33;108880;1271;22667;-75
2024/02/25 00:13:57;;;;;;;9.80;5.90;;;;;;;4.87;92.53;96141.29;108940;1268;22530;-75
2024/02/25 00:16:32;;;;;;;12.80;6.70;;;;;;;4.83;92.41;96143.05;108771;1266;150826;-74
2024/02/25 00:19:03;;;;;;;9.40;5.60;;;;;;;4.68;92.28;96146.69;108884;1265;24100;-75
2024/02/25 00:21:35;;;;;;;9.00;5.00;;;;;;;4.65;92.38;96143.39;108823;1268;22641;-75
2024/02/25 00:24:07;;;;;;;6.90;4.30;;;;;;;4.62;92.43;96138.59;108889;1271;22540;-74
2024/02/25 00:26:40;;;;;;;8.20;4.80;;;;;;;4.59;92.11;96136.41;108819;1271;26438;-74
2024/02/25 00:29:15;;;;;;;7.70;4.70;;;;;;;4.51;91.92;96140.16;108810;1268;22641;-74
2024/02/25 00:31:49;;;;;;;9.40;5.30;;;;;;;4.41;91.73;96139.65;108735;1271;22530;-74
2024/02/25 00:34:22;;;;;;;9.20;5.00;;;;;;;4.23;91.25;96137.98;108796;1271;24035;-74
2024/02/25 00:36:53;;;;;;;9.20;5.10;;;;;;;4.08;91.59;96137.98;108761;1271;22599;-75
2024/02/25 00:39:26;;;;;;;7.90;4.50;;;;;;;4.14;92.29;96134.48;108763;1269;22520;-74
2024/02/25 00:42:01;;;;;;;7.60;4.40;;;;;;;4.16;92.40;96133.97;108797;1271;22653;-75
2024/02/25 00:44:36;;;;;;;7.60;4.70;;;;;;;4.20;92.55;96136.04;108788;1271;22553;-75
2024/02/25 00:47:09;;;;;;;10.40;5.20;;;;;;;4.20;92.46;96131.42;108744;1271;24087;-74
2024/02/25 00:49:44;;;;;;;8.70;5.90;;;;;;;4.22;92.70;96125.00;108825;1268;23335;-75
2024/02/25 00:52:15;;;;;;;10.70;5.70;;;;;;;4.28;92.85;96127.09;108796;1268;22538;-75
2024/02/25 00:54:49;;;;;;;8.70;5.40;;;;;;;4.15;91.76;96124.20;108813;1271;22598;-74
2024/02/25 00:57:22;;;;;;;8.80;4.90;;;;;;;3.91;91.46;96121.66;108817;1265;22626;-74
2024/02/25 00:59:54;;;;;;;9.90;5.50;;;;;;;3.93;92.11;96128.02;108784;1271;22523;-75
2024/02/25 01:02:26;;;;;;;9.30;5.70;;;;;;;3.97;92.26;96121.73;108760;1247;25477;-75
2024/02/25 01:04:58;;;;;;;7.80;4.30;;;;;;;3.97;92.56;96108.77;108801;1271;22588;-74
2024/02/25 01:07:34;;;;;;;9.20;4.50;;;;;;;4.10;92.74;96105.48;108730;1265;25421;-74
2024/02/25 01:10:07;;;;;;;8.10;5.20;;;;;;;4.04;91.88;96111.46;108804;1271;24383;-74
2024/02/25 01:12:43;;;;;;;9.20;5.20;;;;;;;3.76;91.19;96106.41;108887;1265;22546;-74
2024/02/25 01:15:14;;;;;;;6.40;4.10;;;;;;;3.77;92.21;96102.91;108783;1265;22597;-74
2024/02/25 01:17:51;;;;;;;7.30;4.40;;;;;;;3.84;92.10;96101.27;108786;1260;22516;-75
2024/02/25 01:20:22;;;;;;;7.30;4.10;;;;;;;3.75;91.55;96100.23;108789;1250;22611;-75
2024/02/25 01:22:58;;;;;;;5.40;3.30;;;;;;;3.59;91.43;96099.22;108814;1271;24189;-75
2024/02/25 01:25:30;;;;;;;6.50;4.10;;;;;;;3.53;91.60;96099.21;108788;1271;22594;-75
2024/02/25 01:28:05;;;;;;;6.20;4.00;;;;;;;3.54;92.08;96100.74;108760;1271;22742;-75
2024/02/25 01:30:41;;;;;;;6.30;3.40;;;;;;;3.61;92.26;96106.67;108770;1271;22587;-75
2024/02/25 01:33:12;;;;;;;7.10;4.30;;;;;;;3.65;92.39;96107.81;108743;1265;22578;-75
2024/02/25 01:35:50;;;;;;;6.60;4.30;;;;;;;3.67;92.29;96105.08;108736;1265;22565;-75
2024/02/25 01:38:23;;;;;;;7.00;3.70;;;;;;;3.70;92.31;96105.58;108700;1271;22547;-75
2024/02/25 01:40:56;;;;;;;5.60;3.20;;;;;;;3.66;91.73;96113.45;108726;1271;23418;-74
2024/02/25 01:43:27;;;;;;;9.50;4.40;;;;;;;3.47;91.09;96113.98;108726;1271;22680;-74
2024/02/25 01:46:03;;;;;;;9.60;5.10;;;;;;;3.40;91.67;96111.17;108701;1265;25483;-74
2024/02/25 01:48:35;;;;;;;7.00;4.10;;;;;;;3.39;91.86;96111.84;108753;1271;22622;-75
2024/02/25 01:51:09;;;;;;;7.20;3.80;;;;;;;3.41;92.30;96106.30;108781;1271;23871;-74
2024/02/25 01:53:41;;;;;;;5.90;3.80;;;;;;;3.49;92.45;96107.23;108733;1271;25946;-74
2024/02/25 01:56:17;;;;;;;5.30;3.60;;;;;;;3.53;92.51;96104.98;108762;1268;23993;-75
2024/02/25 01:58:55;;;;;;;10.30;5.10;;;;;;;3.63;92.62;96106.33;108764;1271;22647;-74
2024/02/25 02:01:33;;;;;;;5.30;2.90;;;;;;;3.68;92.61;96104.23;108794;1271;24553;-75
2024/02/25 02:04:06;;;;;;;11.80;6.80;;;;;;;3.65;92.27;96096.90;108829;1271;25572;-75
2024/02/25 02:06:37;;;;;;;9.90;6.10;;;;;;;3.71;92.77;96096.62;108756;1271;22544;-75
2024/02/25 02:09:15;;;;;;;9.40;5.60;;;;;;;3.77;92.97;96097.55;108763;1265;22529;-75
2024/02/25 02:11:58;;;;;;;8.10;5.10;;;;;;;3.71;92.46;96093.79;108747;1271;22514;-75
2024/02/25 02:14:37;;;;;;;9.40;5.00;;;;;;;3.69;92.77;96095.34;108755;1268;23339;-75
2024/02/25 02:17:11;;;;;;;10.40;4.90;;;;;;;3.68;92.50;96100.63;108785;1264;23943;-75
2024/02/25 02:19:48;;;;;;;8.20;4.50;;;;;;;3.68;92.77;96097.70;108767;1271;22705;-75
2024/02/25 02:22:19;;;;;;;6.60;3.50;;;;;;;3.71;92.73;96097.71;108784;1271;24216;-75
2024/02/25 02:24:53;;;;;;;6.10;3.50;;;;;;;3.63;92.00;96099.73;108769;1265;22636;-75
2024/02/25 02:27:26;;;;;;;7.40;3.80;;;;;;;3.35;91.41;96101.42;108738;1272;22573;-75
2024/02/25 02:29:59;;;;;;;6.30;4.10;;;;;;;3.24;91.98;96104.23;108781;1269;23848;-75
2024/02/25 02:32:39;;;;;;;5.60;3.20;;;;;;;3.32;92.70;96102.42;108775;1272;23362;-75
2024/02/25 02:35:13;;;;;;;10.10;4.70;;;;;;;3.33;92.49;96104.15;108795;1272;22687;-75
2024/02/25 02:37:47;;;;;;;10.20;5.00;;;;;;;3.36;92.73;96103.30;108755;1271;22991;-75
2024/02/25 02:40:24;;;;;;;8.70;4.70;;;;;;;3.40;92.88;96112.59;108787;1271;23858;-75
2024/02/25 02:42:57;;;;;;;10.00;5.20;;;;;;;3.38;92.56;96117.74;108806;1271;24983;-75
2024/02/25 02:45:29;;;;;;;9.00;4.90;;;;;;;3.24;92.05;96116.22;108707;1265;23027;-74
2024/02/25 02:48:00;;;;;;;8.80;5.30;;;;;;;3.20;92.53;96117.73;108699;1265;22522;-74
2024/02/25 02:50:36;;;;;;;7.60;4.90;;;;;;;3.20;92.63;96124.06;108761;1271;22526;-75
2024/02/25 02:53:11;;;;;;;8.30;4.70;;;;;;;3.21;92.80;96128.84;108759;1272;25352;-75
2024/02/25 02:55:45;;;;;;;9.20;4.80;;;;;;;3.26;93.07;96128.14;108815;1271;25288;-75
2024/02/25 02:58:20;;;;;;;9.30;4.40;;;;;;;3.32;93.28;96128.88;108811;1271;22587;-75
2024/02/25 03:00:54;;;;;;;7.70;3.80;;;;;;;3.33;93.07;96132.02;108786;1271;23879;-75
2024/02/25 03:03:29;;;;;;;8.40;4.90;;;;;;;3.34;93.11;96131.93;108820;1271;22651;-75
2024/02/25 03:06:00;;;;;;;8.70;5.50;;;;;;;3.36;93.24;96126.52;108839;1271;22978;-75
2024/02/25 03:08:34;;;;;;;8.40;5.40;;;;;;;3.42;93.46;96128.70;108779;1271;22613;-75
2024/02/25 03:11:06;;;;;;;9.10;5.20;;;;;;;3.43;93.36;96131.95;108729;1270;25438;-75
2024/02/25 03:13:41;;;;;;;8.20;4.90;;;;;;;3.43;93.32;96131.69;108775;1271;23849;-75
2024/02/25 03:16:15;;;;;;;9.10;6.00;;;;;;;3.39;92.95;96131.64;108785;1268;25418;-75
2024/02/25 03:18:46;;;;;;;11.10;6.10;;;;;;;3.32;92.91;96136.74;108756;1265;24056;-75
2024/02/25 03:21:25;;;;;;;8.70;5.70;;;;;;;3.29;92.99;96140.69;108714;1266;23694;-75
2024/02/25 03:23:56;;;;;;;8.70;6.10;;;;;;;3.30;92.94;96145.67;108740;1271;25277;-75
2024/02/25 03:26:30;;;;;;;7.60;4.30;;;;;;;3.29;92.88;96153.63;108754;1271;24172;-75
2024/02/25 03:29:01;;;;;;;8.50;4.90;;;;;;;3.21;92.35;96157.14;108717;1271;22532;-75
2024/02/25 03:31:35;;;;;;;12.00;7.20;;;;;;;3.15;92.53;96159.80;108763;1271;22556;-75
2024/02/25 03:34:09;;;;;;;10.90;7.00;;;;;;;3.14;92.71;96154.95;108746;1265;22541;-75
2024/02/25 03:36:44;;;;;;;13.30;7.80;;;;;;;3.11;92.89;96154.61;108818;1271;26460;-75
2024/02/25 03:39:18;;;;;;;13.50;7.10;;;;;;;3.10;93.17;96153.70;108754;1271;25659;-75
2024/02/25 03:41:54;;;;;;;10.80;5.60;;;;;;;3.08;93.12;96155.19;108742;1271;22572;-75
2024/02/25 03:44:27;;;;;;;9.00;5.20;;;;;;;3.05;93.03;96156.35;108718;1265;22513;-75
2024/02/25 03:47:07;;;;;;;10.30;6.00;;;;;;;2.98;92.91;96148.00;108769;1271;24204;-75
2024/02/25 03:49:40;;;;;;;9.30;5.80;;;;;;;3.01;93.34;96145.83;108718;1271;22497;-75
2024/02/25 03:52:11;;;;;;;11.20;6.30;;;;;;;3.02;93.36;96147.56;108754;1271;22527;-74
2024/02/25 03:54:49;;;;;;;8.00;4.50;;;;;;;3.05;93.39;96148.13;108712;1268;22552;-75
2024/02/25 03:57:22;;;;;;;7.00;3.60;;;;;;;3.04;93.39;96152.09;108777;1271;22531;-75
2024/02/25 03:59:56;;;;;;;7.30;4.40;;;;;;;3.03;93.39;96151.41;108699;1264;22564;-75
2024/02/25 04:02:33;;;;;;;8.10;4.40;;;;;;;3.07;93.46;96145.84;108698;1265;22539;-75
2024/02/25 04:05:08;;;;;;;9.00;4.70;;;;;;;3.05;93.35;96149.95;108772;1266;22544;-75
2024/02/25 04:07:41;;;;;;;7.30;4.40;;;;;;;3.11;93.65;96150.16;108749;1268;22517;-75
2024/02/25 04:10:14;;;;;;;7.50;4.50;;;;;;;3.15;93.62;96150.73;108774;1271;22568;-75
2024/02/25 04:12:51;;;;;;;5.70;3.80;;;;;;;3.25;93.77;96150.95;108769;1271;26465;-74
2024/02/25 04:15:32;;;;;;;6.50;4.00;;;;;;;3.41;94.01;96152.41;108798;1260;22519;-75
2024/02/25 04:18:05;;;;;;;8.30;4.60;;;;;;;3.51;94.04;96156.99;108765;1266;23550;-75
2024/02/25 04:20:41;;;;;;;8.30;3.20;;;;;;;3.63;93.95;96156.85;108803;1265;22984;-74
2024/02/25 04:23:17;;;;;;;7.50;4.10;;;;;;;3.75;93.93;96160.40;108821;1266;22571;-74
2024/02/25 04:25:48;;;;;;;8.90;4.50;;;;;;;3.82;93.63;96154.78;108809;1265;22511;-75
2024/02/25 04:28:21;;;;;;;5.90;3.60;;;;;;;3.79;93.20;96151.53;108780;1265;22530;-75
2024/02/25 04:30:55;;;;;;;6.60;4.30;;;;;;;3.71;92.87;96152.20;108791;1271;25486;-75
2024/02/25 04:33:30;;;;;;;5.70;3.20;;;;;;;3.64;92.85;96152.46;108770;1268;22625;-75
2024/02/25 04:36:04;;;;;;;5.60;3.30;;;;;;;3.57;92.81;96153.55;108764;1268;23735;-75
2024/02/25 04:38:39;;;;;;;6.10;3.80;;;;;;;3.57;92.95;96155.23;108826;1271;22564;-75
2024/02/25 04:41:10;;;;;;;5.50;3.70;;;;;;;3.55;92.86;96152.07;108752;1271;24214;-75
2024/02/25 04:43:42;;;;;;;6.20;3.60;;;;;;;3.53;92.94;96152.73;108778;1271;26367;-75
2024/02/25 04:46:15;;;;;;;8.50;3.70;;;;;;;3.54;93.03;96156.94;108717;1271;22513;-75
2024/02/25 04:48:51;;;;;;;6.30;3.30;;;;;;;3.58;93.13;96154.41;108749;1268;22620;-75
2024/02/25 04:51:22;;;;;;;6.90;3.40;;;;;;;3.60;92.94;96155.63;108700;1265;22543;-75
2024/02/25 04:53:58;;;;;;;10.10;4.10;;;;;;;3.60;92.95;96158.41;108780;1270;22679;-75
2024/02/25 04:56:29;;;;;;;5.60;3.20;;;;;;;3.55;92.67;96154.05;108731;1269;25245;-75
2024/02/25 04:59:05;;;;;;;7.40;4.00;;;;;;;3.52;92.77;96154.23;108743;1265;22542;-75
2024/02/25 05:01:38;;;;;;;5.40;3.40;;;;;;;3.63;93.01;96159.59;108719;1271;22522;-75
2024/02/25 05:04:11;;;;;;;8.20;3.20;;;;;;;3.65;92.73;96162.27;108745;1271;22520;-75
2024/02/25 05:06:43;;;;;;;7.70;3.20;;;;;;;3.61;92.48;96166.53;108827;1268;24251;-75
2024/02/25 05:09:14;;;;;;;6.20;3.30;;;;;;;3.46;91.75;96170.50;108720;1270;25056;-75
2024/02/25 05:11:47;;;;;;;4.10;2.60;;;;;;;3.21;91.38;96166.52;108726;1271;22518;-75
2024/02/25 05:14:21;;;;;;;7.30;3.10;;;;;;;3.09;91.89;96162.05;108732;1271;22598;-75
2024/02/25 05:16:57;;;;;;;6.40;2.60;;;;;;;3.09;92.42;96161.48;108720;1271;24221;-75
2024/02/25 05:19:33;;;;;;;6.70;3.20;;;;;;;3.13;92.54;96164.11;108723;1271;25279;-75
2024/02/25 05:22:06;;;;;;;7.20;4.10;;;;;;;3.14;92.44;96170.31;108716;1268;25167;-75
2024/02/25 05:24:39;;;;;;;8.40;5.40;;;;;;;3.08;92.12;96174.93;108742;1271;25301;-75
2024/02/25 05:27:10;;;;;;;6.40;4.30;;;;;;;3.01;92.15;96175.99;108737;1268;22562;-75
2024/02/25 05:29:41;;;;;;;8.50;4.80;;;;;;;3.03;92.55;96181.83;108741;1271;22522;-74
2024/02/25 05:32:17;;;;;;;6.60;3.90;;;;;;;3.16;92.96;96177.55;108689;1269;22779;-75
2024/02/25 05:34:48;;;;;;;6.90;4.20;;;;;;;3.26;93.10;96183.23;108777;1271;22533;-75
2024/02/25 05:37:20;;;;;;;6.60;4.00;;;;;;;3.41;93.06;96187.89;108726;1271;25544;-75
2024/02/25 05:39:52;;;;;;;6.00;3.90;;;;;;;3.53;93.03;96188.56;108741;1271;22989;-75
2024/02/25 05:42:28;;;;;;;6.70;3.70;;;;;;;3.73;93.21;96191.73;108721;1250;22557;-75
2024/02/25 05:45:00;;;;;;;4.50;3.10;;;;;;;3.81;92.90;96191.79;108802;1264;25413;-75
2024/02/25 05:47:33;;;;;;;6.60;4.00;;;;;;;3.82;92.49;96187.81;108727;1271;24225;-75
2024/02/25 05:50:08;;;;;;;6.80;4.00;;;;;;;3.82;92.31;96184.04;108770;1265;24231;-75
2024/02/25 05:52:39;;;;;;;7.00;3.70;;;;;;;3.88;92.29;96181.79;108730;1266;22520;-75
2024/02/25 05:55:17;;;;;;;5.30;3.80;;;;;;;3.93;92.06;96179.63;108794;1272;22519;-75
2024/02/25 05:57:50;;;;;;;;;;;;;;;3.95;92.03;96180.10;108720;1272;22508;-75
2024/02/25 06:00:22;;;;;;;6.20;3.40;;;;;;;3.99;91.90;96181.91;108724;1271;25249;-74
2024/02/25 06:02:55;;;;;;;7.40;3.90;;;;;;;4.07;92.04;96180.00;108752;1271;22578;-75
2024/02/25 06:05:30;;;;;;;5.10;3.00;;;;;;;4.16;91.81;96182.81;108774;1256;22531;-75
2024/02/25 06:08:06;;;;;;;6.90;3.70;;;;;;;4.28;91.85;96182.40;108766;1266;22543;-75
2024/02/25 06:10:39;;;;;;;5.70;3.50;;;;;;;4.50;91.96;96191.90;108753;1265;22564;-74
2024/02/25 06:13:11;;;;;;;5.80;3.50;;;;;;;4.62;91.44;96187.33;108772;1268;22541;-74
2024/02/25 06:15:43;;;;;;;6.70;3.50;;;;;;;4.69;90.96;96189.33;108732;1271;25611;-74
2024/02/25 06:18:26;;;;;;;5.60;3.50;;;;;;;4.81;90.60;96187.15;108757;1267;24166;-75
2024/02/25 06:21:01;;;;;;;6.50;3.70;;;;;;;5.08;90.68;96184.71;108735;1272;22546;-75
2024/02/25 06:23:42;;;;;;;6.20;3.80;;;;;;;5.53;90.90;96181.38;108758;1271;22631;-74
2024/02/25 06:26:17;;;;;;;6.30;3.80;;;;;;;5.92;90.01;96185.70;108710;1268;22556;-74
2024/02/25 06:28:48;;;;;;;5.00;3.40;;;;;;;6.11;89.22;96184.45;108731;1268;24015;-74
2024/02/25 06:31:20;;;;;;;6.60;3.90;;;;;;;6.36;88.55;96178.50;108737;1271;22525;-74
2024/02/25 06:33:56;;;;;;;6.90;4.10;;;;;;;6.42;87.70;96176.82;108687;1271;22520;-73
2024/02/25 06:36:32;;;;;;;6.10;3.70;;;;;;;6.67;88.11;96175.88;108809;1268;25662;-72
2024/02/25 06:39:08;;;;;;;7.20;4.00;;;;;;;6.83;87.16;96179.63;108639;1270;22551;-73
2024/02/25 06:41:41;;;;;;;5.40;3.60;;;;;;;6.68;86.49;96178.77;108742;1271;23447;-73
2024/02/25 06:44:15;;;;;;;6.20;4.40;;;;;;;6.77;86.96;96184.89;108693;1271;24121;-73
2024/02/25 06:46:47;;;;;;;7.70;4.30;;;;;;;6.86;86.81;96184.31;108794;1271;26610;-73
2024/02/25 06:49:22;;;;;;;8.10;5.00;;;;;;;7.03;86.63;96188.26;108723;1271;24412;-72
2024/02/25 06:51:57;;;;;;;7.00;4.50;;;;;;;7.42;86.33;96189.24;108682;1265;23070;-73
2024/02/25 06:54:28;;;;;;;7.00;4.50;;;;;;;7.88;85.85;96184.22;108720;1272;25291;-73
2024/02/25 06:57:02;;;;;;;8.00;4.40;;;;;;;8.32;85.52;96182.05;108695;1268;24386;-72
2024/02/25 06:59:33;;;;;;;11.50;7.40;;;;;;;8.77;84.69;96182.80;108763;1272;22527;-73
2024/02/25 07:02:05;;;;;;;9.30;7.70;;;;;;;9.28;84.47;96183.60;108710;1271;23996;-73
2024/02/25 07:04:37;;;;;;;7.60;5.00;;;;;;;10.16;84.44;96176.45;108729;1268;22534;-74
2024/02/25 07:07:09;;;;;;;7.00;5.00;;;;;;;11.18;84.19;96175.52;108782;1268;25443;-73
2024/02/25 07:09:44;;;;;;;8.00;6.50;;;;;;;11.82;82.77;96179.78;108766;1271;22575;-73
2024/02/25 07:12:20;;;;;;;7.50;5.40;;;;;;;12.17;81.04;96183.27;108722;1270;23345;-73
2024/02/25 07:14:54;;;;;;;5.80;3.80;;;;;;;12.39;79.80;96186.56;108710;1271;22525;-73
2024/02/25 07:17:29;;;;;;;6.30;3.90;;;;;;;12.99;79.17;96181.94;108712;1272;22521;-74
2024/02/25 07:20:03;;;;;;;5.30;3.80;;;;;;;13.76;77.49;96174.34;108720;1272;22637;-74
2024/02/25 07:22:35;;;;;;;5.40;3.70;;;;;;;13.75;75.22;96168.44;108727;1271;22712;-74
2024/02/25 07:25:10;;;;;;;6.20;3.90;;;;;;;14.47;75.55;96162.88;108778;1268;22522;-74
2024/02/25 07:27:45;;;;;;;5.10;3.60;;;;;;;14.98;74.53;96160.28;108800;1271;22531;-74
2024/02/25 07:30:19;;;;;;;4.60;3.50;;;;;;;15.48;73.95;96159.52;108732;1271;25102;-73
2024/02/25 07:32:50;;;;;;;6.40;3.90;;;;;;;15.85;72.64;96157.27;108751;1271;22521;-74
2024/02/25 07:35:23;;;;;;;5.90;3.80;;;;;;;15.83;71.36;96154.23;108741;1271;22620;-74
2024/02/25 07:37:55;;;;;;;6.20;4.90;;;;;;;15.84;70.55;96152.59;108750;1264;25406;-73
2024/02/25 07:40:29;;;;;;;5.40;4.40;;;;;;;16.13;70.09;96147.13;108763;1271;24209;-74
2024/02/25 07:43:04;;;;;;;5.40;3.50;;;;;;;16.68;69.00;96141.50;108783;1268;22514;-74
2024/02/25 07:45:35;;;;;;;5.80;4.50;;;;;;;17.27;67.63;96131.05;108646;1271;22517;-73
2024/02/25 07:48:08;;;;;;;6.30;4.80;;;;;;;17.16;65.67;96129.80;108649;1271;22580;-74
2024/02/25 07:50:41;;;;;;;6.10;4.60;;;;;;;17.15;64.67;96126.01;108660;1268;25342;-73
2024/02/25 07:53:15;;;;;;;6.10;4.30;;;;;;;17.16;63.85;96121.06;108713;1268;22582;-74
2024/02/25 07:55:49;;;;;;;7.60;4.90;;;;;;;17.69;64.16;96116.73;108697;1266;25451;-73
2024/02/25 07:58:25;;;;;;;6.00;5.40;;;;;;;18.31;63.55;96112.69;108805;1268;22532;-74
2024/02/25 08:00:57;;;;;;;6.90;5.50;;;;;;;19.19;62.80;96110.21;108830;1271;24163;-74
2024/02/25 08:03:28;;;;;;;6.70;5.10;;;;;;;20.17;62.38;96103.38;108767;1271;22526;-73
2024/02/25 08:05:59;;;;;;;5.20;3.90;;;;;;;21.11;61.71;96107.81;108810;1271;25438;-74
2024/02/25 08:08:35;;;;;;;6.70;3.70;;;;;;;21.65;60.36;96108.81;108786;1271;24217;-74
2024/02/25 08:11:06;;;;;;;4.20;3.30;;;;;;;22.06;59.09;96111.76;108760;1269;22529;-74
2024/02/25 08:13:38;;;;;;;5.20;3.20;;;;;;;21.94;57.25;96110.39;108785;1265;22623;-74
2024/02/25 08:16:10;;;;;;;3.80;3.10;;;;;;;22.32;56.83;96107.87;108762;1268;22542;-73
2024/02/25 08:18:49;;;;;;;4.30;3.30;;;;;;;22.96;56.15;96100.16;108781;1265;22508;-73
2024/02/25 08:21:26;;;;;;;3.40;3.10;;;;;;;23.34;54.91;96095.52;108839;1271;24208;-73
2024/02/25 08:24:01;;;;;;;4.70;3.00;;;;;;;23.53;53.95;96085.00;108874;1266;22513;-73
2024/02/25 08:26:36;;;;;;;5.20;2.70;;;;;;;23.93;53.44;96082.91;108868;1271;22879;-74
2024/02/25 08:29:10;;;;;;;5.00;2.80;;;;;;;24.17;52.42;96082.98;108840;1271;22533;-73
2024/02/25 08:31:48;;;;;;;4.10;2.70;;;;;;;24.19;51.19;96079.81;108882;1271;22515;-73
2024/02/25 08:34:25;;;;;;;5.20;3.00;;;;;;;24.24;50.70;96078.70;108872;1271;22567;-73
2024/02/25 08:36:59;;;;;;;4.30;2.70;;;;;;;24.30;50.41;96079.59;108840;1271;25351;-73
2024/02/25 08:39:33;;;;;;;5.50;2.90;;;;;;;24.17;49.68;96076.33;108761;1268;22518;-73
2024/02/25 08:42:06;;;;;;;3.80;2.60;;;;;;;24.01;49.03;96073.44;108841;1264;22521;-74
2024/02/25 08:44:39;;;;;;;5.00;2.70;;;;;;;23.72;48.66;96074.73;108826;1266;22925;-73
2024/02/25 08:47:11;;;;;;;5.00;3.10;;;;;;;23.59;48.27;96077.58;108774;1268;24064;-73
2024/02/25 08:49:45;;;;;;;4.90;3.10;;;;;;;23.55;48.22;96078.85;108812;1268;22524;-73
2024/02/25 08:52:20;;;;;;;4.30;3.00;;;;;;;23.37;47.94;96073.89;108801;1268;23556;-73
2024/02/25 08:54:54;;;;;;;4.80;2.90;;;;;;;22.62;46.72;96066.40;108824;1269;26178;-73
2024/02/25 08:57:30;;;;;;;4.80;2.70;;;;;;;21.42;45.85;96070.83;108804;1271;22547;-74
2024/02/25 09:00:07;;;;;;;5.40;3.20;;;;;;;21.22;47.21;96070.48;108834;1271;25432;-73
2024/02/25 09:02:41;;;;;;;5.50;3.70;;;;;;;21.20;47.45;96071.05;108831;1271;22524;-73
2024/02/25 09:05:16;;;;;;;5.40;3.70;;;;;;;21.05;47.90;96068.05;108783;1264;24102;-74
2024/02/25 09:07:50;;;;;;;7.10;4.00;;;;;;;20.66;48.27;96059.63;108838;1268;22530;-75
2024/02/25 09:10:22;;;;;;;6.10;3.60;;;;;;;20.29;48.61;96056.41;108789;1272;25420;-75
2024/02/25 09:12:57;;;;;;;6.10;3.30;;;;;;;19.82;48.39;96051.50;108751;1271;23030;-74
2024/02/25 09:15:31;;;;;;;4.50;3.00;;;;;;;19.27;48.36;96054.05;108728;1265;26779;-74
2024/02/25 09:18:07;;;;;;;3.70;2.30;;;;;;;18.76;48.12;96052.09;108786;1271;22550;-74
2024/02/25 09:20:38;;;;;;;4.90;3.10;;;;;;;18.03;47.48;96056.71;108788;1272;22533;-74
2024/02/25 09:23:13;;;;;;;5.70;2.90;;;;;;;17.62;48.11;96059.44;108814;1260;22557;-74
2024/02/25 09:25:47;;;;;;;4.60;2.60;;;;;;;16.99;47.72;96062.64;108753;1269;25011;-73
2024/02/25 09:28:21;;;;;;;5.00;2.50;;;;;;;16.69;48.39;96065.46;108767;1271;22517;-74
2024/02/25 09:30:52;;;;;;;4.80;2.70;;;;;;;16.51;48.70;96065.86;108634;1268;22562;-74
2024/02/25 09:33:32;;;;;;;4.70;2.10;;;;;;;16.09;48.22;96068.27;108695;1268;22532;-74
2024/02/25 09:36:07;;;;;;;4.10;2.10;;;;;;;15.86;48.59;96062.47;108834;1268;23068;-74
2024/02/25 09:38:39;;;;;;;3.10;1.70;;;;;;;15.79;47.95;96055.25;108858;1268;22539;-73
2024/02/25 09:41:11;;;;;;;2.90;1.40;;;;;;;15.24;45.25;96056.06;108831;1267;22563;-73
2024/02/25 09:43:44;;;;;;;3.60;1.40;;;;;;;14.63;44.94;96064.45;108835;1268;22545;-73
2024/02/25 09:46:18;;;;;;;2.50;1.20;;;;;;;14.20;44.53;96059.80;108808;1271;22528;-73
2024/02/25 09:48:54;;;;;;;4.80;1.50;;;;;;;14.04;45.60;96057.81;108830;1269;22524;-73
2024/02/25 09:51:26;;;;;;;2.20;1.30;;;;;;;14.24;46.70;96053.84;108794;1271;23748;-73
2024/02/25 09:54:01;;;;;;;4.00;1.70;;;;;;;14.38;46.16;96047.74;108807;1266;26564;-73
2024/02/25 09:56:37;;;;;;;3.00;1.50;;;;;;;14.27;45.90;96041.52;108766;1268;23367;-73
2024/02/25 09:59:12;;;;;;;3.70;1.70;;;;;;;14.27;46.88;96032.73;108784;1269;22574;-73
2024/02/25 10:01:50;;;;;;;3.10;1.90;;;;;;;14.44;47.71;96029.42;108560;1272;22483;-73
2024/02/25 10:04:25;;;;;;;3.80;1.60;;;;;;;14.70;48.15;96021.38;109086;1266;22571;-73
2024/02/25 10:07:01;;;;;;;2.10;1.40;;;;;;;14.94;48.55;96016.65;110648;1268;22445;-74
2024/02/25 10:09:35;;;;;;;3.30;1.80;;;;;;;15.01;47.62;96015.65;108824;1271;22516;-73
2024/02/25 10:12:07;;;;;;;2.80;1.50;;;;;;;14.95;47.53;96009.75;108825;1268;22529;-73
2024/02/25 10:14:41;;;;;;;3.80;1.70;;;;;;;14.79;46.87;95996.77;108776;1271;25474;-73
2024/02/25 10:17:14;;;;;;;2.70;1.60;;;;;;;14.90;48.29;95994.40;108847;1271;22574;-73
2024/02/25 10:19:57;;;;;;;3.20;1.80;;;;;;;15.09;47.98;95995.52;108806;1271;22862;-73
2024/02/25 10:22:31;;;;;;;3.70;2.10;;;;;;;15.27;48.51;95996.27;108825;1271;22533;-73
2024/02/25 10:25:14;;;;;;;3.80;1.60;;;;;;;15.56;48.74;95992.59;108857;1271;25271;-73
2024/02/25 10:27:52;;;;;;;2.60;1.50;;;;;;;15.77;48.55;95982.45;108772;1270;35171;-73
2024/02/25 10:30:24;;;;;;;3.40;0.90;;;;;;;15.88;48.11;95978.52;108816;1271;22566;-73
2024/02/25 10:33:13;;;;;;;4.70;1.90;;;;;;;15.97;47.94;95980.52;108870;1271;22550;-73
2024/02/25 10:35:47;;;;;;;2.60;1.40;;;;;;;16.13;48.27;95982.75;108825;1272;22511;-73
2024/02/25 10:38:22;;;;;;;3.40;1.50;;;;;;;16.26;48.27;95981.15;108875;1271;22527;-73
2024/02/25 10:40:57;;;;;;;4.30;1.10;;;;;;;16.22;47.55;95973.70;108810;1270;22525;-74
2024/02/25 10:43:35;;;;;;;1.90;1.10;;;;;;;16.02;46.72;95976.96;108850;1271;22591;-73
2024/02/25 10:46:15;;;;;;;2.40;1.30;;;;;;;15.98;46.99;95976.28;108793;1272;24356;-73
2024/02/25 10:48:50;;;;;;;2.90;1.10;;;;;;;16.00;47.12;95972.23;108862;1272;22520;-74
2024/02/25 10:51:26;;;;;;;2.10;1.20;;;;;;;16.01;46.97;95963.70;108836;1271;24024;-73
2024/02/25 10:53:58;;;;;;;4.30;1.10;;;;;;;16.17;47.03;95952.00;108893;1271;23812;-73
2024/02/25 10:56:31;;;;;;;1.70;0.90;;;;;;;16.22;46.94;95952.52;108816;1272;22783;-73
2024/02/25 10:59:03;;;;;;;2.70;1.30;;;;;;;16.08;46.11;95951.95;108854;1272;22752;-73
2024/02/25 11:01:38;;;;;;;3.10;1.10;;;;;;;15.86;46.17;95946.45;108878;1272;25323;-73
2024/02/25 11:04:11;;;;;;;3.50;1.10;;;;;;;15.96;46.37;95945.82;108866;1269;25352;-74
2024/02/25 11:06:44;;;;;;;2.60;1.10;;;;;;;16.09;46.22;95941.46;108857;1265;25497;-74
2024/02/25 11:09:16;;;;;;;2.40;1.40;;;;;;;16.26;46.22;95933.70;108875;1271;22550;-74
2024/02/25 11:11:48;;;;;;;1.50;0.90;;;;;;;16.39;46.41;95932.75;108859;1272;22537;-74
2024/02/25 11:14:22;;;;;;;1.90;0.90;;;;;;;16.28;44.65;95925.05;108858;1268;22569;-73
2024/02/25 11:16:57;;;;;;;2.30;1.20;;;;;;;15.95;44.67;95919.20;108844;1272;22574;-73
2024/02/25 11:19:36;;;;;;;2.40;1.10;;;;;;;15.94;45.11;95922.09;108811;1272;22527;-74
2024/02/25 11:22:08;;;;;;;3.00;1.50;;;;;;;15.91;45.06;95921.49;108880;1272;22528;-73
2024/02/25 11:24:50;;;;;;;2.30;1.20;;;;;;;15.83;45.66;95917.54;108855;1271;22549;-74
2024/02/25 11:27:25;;;;;;;2.30;1.10;;;;;;;15.97;45.99;95906.44;108925;1269;22527;-74
2024/02/25 11:30:18;;;;;;;2.80;1.00;;;;;;;16.12;45.79;95907.84;108897;1272;25391;-74
2024/02/25 11:32:54;;;;;;;2.60;1.30;;;;;;;15.95;45.23;95910.50;108882;1272;25416;-74
2024/02/25 11:35:31;;;;;;;1.60;0.90;;;;;;;15.59;44.72;95918.06;108832;1267;23481;-73
2024/02/25 11:38:07;;;;;;;1.80;1.00;;;;;;;15.18;44.55;95910.03;108830;1272;22540;-73
2024/02/25 11:40:38;;;;;;;2.20;1.00;;;;;;;15.20;45.05;95907.16;108838;1267;22524;-73
2024/02/25 11:43:11;;;;;;;2.60;1.10;;;;;;;15.39;45.64;95905.16;108820;1271;22545;-73
2024/02/25 11:45:43;;;;;;;2.50;1.10;;;;;;;15.80;45.60;95900.80;108859;1272;23288;-73
2024/02/25 11:48:16;;;;;;;1.80;1.20;;;;;;;16.08;45.32;95893.75;108936;1267;22677;-73
2024/02/25 11:50:56;;;;;;;2.20;1.00;;;;;;;16.10;44.61;95897.25;108843;1272;22548;-73
2024/02/25 11:53:34;;;;;;;2.30;0.90;;;;;;;16.24;44.97;95891.15;108868;1272;22598;-74
2024/02/25 11:56:07;;;;;;;1.90;1.00;;;;;;;16.37;44.56;95891.89;108789;1272;24225;-74
2024/02/25 11:58:43;;;;;;;1.20;0.90;;;;;;;16.07;42.04;95890.95;108904;1267;23759;-74
2024/02/25 12:01:16;;;;;;;2.30;1.00;;;;;;;15.60;42.10;95895.41;108870;1272;22518;-74